sensor_id;sensor_type;location;lat;lon;timestamp;pressure;altitude;pressure_sealevel;temperature;humidity
54936;BME280;40838;50.676;7.838;2024-02-04T00:00:20;99099.38;;;12.44;100.00
54936;BME280;40838;50.676;7.838;2024-02-04T00:02:47;99103.97;;;12.15;100.00
54936;BME280;40838;50.676;7.838;2024-02-04T00:05:16;99096.78;;;12.49;100.00
54936;BME280;40838;50.676;7.838;2024-02-04T00:07:44;99093.84;;;12.84;100.00
54936;BME280;40838;50.676;7.838;2024-02-04T00:10:11;99083.81;;;12.69;100.00
54936;BME280;40838;50.676;7.838;2024-02-04T00:12:38;99074.38;;;12.79;100.00
54936;BME280;40838;50.676;7.838;2024-02-04T00:15:06;99071.31;;;12.48;100.00
54936;BME280;40838;50.676;7.838;2024-02-04T00:17:33;99062.47;;;12.42;100.00
54936;BME280;40838;50.676;7.838;2024-02-04T00:20:00;99064.25;;;12.37;100.00
54936;BME280;40838;50.676;7.838;2024-02-04T00:22:30;99065.09;;;12.59;100.00
54936;BME280;40838;50.676;7.838;2024-02-04T00:24:57;99071.09;;;11.82;100.00
54936;BME280;40838;50.676;7.838;2024-02-04T00:27:29;99074.41;;;12.45;100.00
54936;BME280;40838;50.676;7.838;2024-02-04T00:29:56;99073.69;;;12.11;100.00
54936;BME280;40838;50.676;7.838;2024-02-04T00:32:24;99085.28;;;12.60;100.00
54936;BME280;40838;50.676;7.838;2024-02-04T00:34:51;99079.44;;;12.80;100.00
54936;BME280;40838;50.676;7.838;2024-02-04T00:37:18;99083.44;;;12.44;100.00
54936;BME280;40838;50.676;7.838;2024-02-04T00:39:46;99081.28;;;12.58;100.00
54936;BME280;40838;50.676;7.838;2024-02-04T00:42:13;99076.34;;;12.88;100.00
54936;BME280;40838;50.676;7.838;2024-02-04T00:44:41;99078.81;;;12.73;100.00
54936;BME280;40838;50.676;7.838;2024-02-04T00:47:08;99079.81;;;12.67;100.00
54936;BME280;40838;50.676;7.838;2024-02-04T00:49:35;99075.97;;;12.58;100.00
54936;BME280;40838;50.676;7.838;2024-02-04T00:52:02;99066.03;;;12.70;100.00
54936;BME280;40838;50.676;7.838;2024-02-04T00:54:29;99074.63;;;12.77;100.00
54936;BME280;40838;50.676;7.838;2024-02-04T00:56:57;99076.69;;;12.53;100.00
54936;BME280;40838;50.676;7.838;2024-02-04T00:59:26;99077.25;;;12.38;100.00
54936;BME280;40838;50.676;7.838;2024-02-04T01:01:53;99086.94;;;11.94;100.00
54936;BME280;40838;50.676;7.838;2024-02-04T01:04:21;99080.09;;;11.64;100.00
54936;BME280;40838;50.676;7.838;2024-02-04T01:06:49;99086.88;;;12.05;100.00
54936;BME280;40838;50.676;7.838;2024-02-04T01:09:16;99092.66;;;12.02;100.00
54936;BME280;40838;50.676;7.838;2024-02-04T01:11:43;99087.31;;;12.53;100.00
54936;BME280;40838;50.676;7.838;2024-02-04T01:14:12;99081.34;;;12.46;100.00
54936;BME280;40838;50.676;7.838;2024-02-04T01:16:39;99073.59;;;12.22;100.00
54936;BME280;40838;50.676;7.838;2024-02-04T01:19:06;99083.88;;;11.68;100.00
54936;BME280;40838;50.676;7.838;2024-02-04T01:21:33;99078.31;;;12.20;100.00
54936;BME280;40838;50.676;7.838;2024-02-04T01:24:00;99079.06;;;12.71;100.00
54936;BME280;40838;50.676;7.838;2024-02-04T01:26:27;99075.91;;;12.96;100.00
54936;BME280;40838;50.676;7.838;2024-02-04T01:28:54;99075.09;;;12.74;100.00
54936;BME280;40838;50.676;7.838;2024-02-04T01:31:22;99062.97;;;13.27;100.00
54936;BME280;40838;50.676;7.838;2024-02-04T01:33:49;99071.53;;;12.85;100.00
54936;BME280;40838;50.676;7.838;2024-02-04T01:36:16;99073.50;;;13.44;100.00
54936;BME280;40838;50.676;7.838;2024-02-04T01:38:43;99059.41;;;12.94;100.00
54936;BME280;40838;50.676;7.838;2024-02-04T01:41:10;99067.50;;;13.05;100.00
54936;BME280;40838;50.676;7.838;2024-02-04T01:43:37;99068.84;;;13.56;100.00
54936;BME280;40838;50.676;7.838;2024-02-04T01:46:04;99057.47;;;12.46;100.00
54936;BME280;40838;50.676;7.838;2024-02-04T01:48:33;99060.09;;;12.07;100.00
54936;BME280;40838;50.676;7.838;2024-02-04T01:51:01;99053.50;;;12.48;100.00
54936;BME280;40838;50.676;7.838;2024-02-04T01:53:29;99048.19;;;11.93;100.00
54936;BME280;40838;50.676;7.838;2024-02-04T01:55:59;99056.50;;;12.35;100.00
54936;BME280;40838;50.676;7.838;2024-02-04T01:58:26;99048.38;;;11.69;100.00
54936;BME280;40838;50.676;7.838;2024-02-04T02:00:53;99055.09;;;11.77;100.00
54936;BME280;40838;50.676;7.838;2024-02-04T02:03:21;99050.75;;;11.71;100.00
54936;BME280;40838;50.676;7.838;2024-02-04T02:05:50;99050.84;;;11.30;100.00
54936;BME280;40838;50.676;7.838;2024-02-04T02:08:18;99041.91;;;11.20;100.00
54936;BME280;40838;50.676;7.838;2024-02-04T02:10:48;99044.78;;;11.18;100.00
54936;BME280;40838;50.676;7.838;2024-02-04T02:13:17;99032.34;;;11.47;100.00
54936;BME280;40838;50.676;7.838;2024-02-04T02:15:50;99035.25;;;11.63;100.00
54936;BME280;40838;50.676;7.838;2024-02-04T02:18:21;99040.69;;;11.10;100.00
54936;BME280;40838;50.676;7.838;2024-02-04T02:21:08;99027.50;;;11.44;100.00
54936;BME280;40838;50.676;7.838;2024-02-04T02:23:45;99018.50;;;12.13;100.00
54936;BME280;40838;50.676;7.838;2024-02-04T02:26:16;99013.63;;;11.88;100.00
54936;BME280;40838;50.676;7.838;2024-02-04T02:28:44;99021.31;;;11.38;100.00
54936;BME280;40838;50.676;7.838;2024-02-04T02:31:11;99015.00;;;11.73;100.00
54936;BME280;40838;50.676;7.838;2024-02-04T02:33:38;99021.38;;;11.27;100.00
54936;BME280;40838;50.676;7.838;2024-02-04T02:36:11;99011.22;;;11.52;100.00
54936;BME280;40838;50.676;7.838;2024-02-04T02:38:44;99019.25;;;11.91;100.00
54936;BME280;40838;50.676;7.838;2024-02-04T02:41:15;99002.06;;;11.77;100.00
54936;BME280;40838;50.676;7.838;2024-02-04T02:43:43;99023.53;;;7.52;100.00
54936;BME280;40838;50.676;7.838;2024-02-04T02:46:11;99029.88;;;7.45;100.00
54936;BME280;40838;50.676;7.838;2024-02-04T02:48:38;99031.41;;;7.27;100.00
54936;BME280;40838;50.676;7.838;2024-02-04T02:51:05;99029.53;;;6.96;100.00
54936;BME280;40838;50.676;7.838;2024-02-04T02:53:32;99023.75;;;7.51;100.00
54936;BME280;40838;50.676;7.838;2024-02-04T02:55:59;99022.78;;;7.70;100.00
54936;BME280;40838;50.676;7.838;2024-02-04T02:58:29;99021.44;;;7.29;100.00
54936;BME280;40838;50.676;7.838;2024-02-04T03:00:56;99026.44;;;7.13;100.00
54936;BME280;40838;50.676;7.838;2024-02-04T03:03:23;99031.47;;;7.14;100.00
54936;BME280;40838;50.676;7.838;2024-02-04T03:05:50;99036.56;;;7.41;100.00
54936;BME280;40838;50.676;7.838;2024-02-04T03:08:17;99017.97;;;7.36;100.00
54936;BME280;40838;50.676;7.838;2024-02-04T03:10:45;99003.19;;;12.37;100.00
54936;BME280;40838;50.676;7.838;2024-02-04T03:13:11;98991.69;;;12.97;100.00
54936;BME280;40838;50.676;7.838;2024-02-04T03:15:40;98996.22;;;12.74;100.00
54936;BME280;40838;50.676;7.838;2024-02-04T03:18:08;98994.97;;;11.99;100.00
54936;BME280;40838;50.676;7.838;2024-02-04T03:20:35;98998.22;;;12.23;100.00
54936;BME280;40838;50.676;7.838;2024-02-04T03:23:02;99004.25;;;12.58;100.00
54936;BME280;40838;50.676;7.838;2024-02-04T03:25:29;99002.06;;;11.77;100.00
54936;BME280;40838;50.676;7.838;2024-02-04T03:27:57;98995.16;;;11.59;100.00
54936;BME280;40838;50.676;7.838;2024-02-04T03:30:24;99010.97;;;11.71;100.00
54936;BME280;40838;50.676;7.838;2024-02-04T03:32:52;99000.88;;;12.23;100.00
54936;BME280;40838;50.676;7.838;2024-02-04T03:35:20;98994.41;;;12.36;100.00
54936;BME280;40838;50.676;7.838;2024-02-04T03:37:47;99001.34;;;12.20;100.00
54936;BME280;40838;50.676;7.838;2024-02-04T03:40:15;99008.31;;;11.88;100.00
54936;BME280;40838;50.676;7.838;2024-02-04T03:42:43;98999.25;;;11.83;100.00
54936;BME280;40838;50.676;7.838;2024-02-04T03:45:10;99007.75;;;12.02;100.00
54936;BME280;40838;50.676;7.838;2024-02-04T03:47:37;99002.16;;;12.82;100.00
54936;BME280;40838;50.676;7.838;2024-02-04T03:50:06;99002.66;;;12.57;100.00
54936;BME280;40838;50.676;7.838;2024-02-04T03:52:33;99005.28;;;11.96;100.00
54936;BME280;40838;50.676;7.838;2024-02-04T03:55:00;99001.78;;;12.51;100.00
54936;BME280;40838;50.676;7.838;2024-02-04T03:57:29;98986.91;;;12.72;100.00
54936;BME280;40838;50.676;7.838;2024-02-04T03:59:56;98988.97;;;13.19;100.00
54936;BME280;40838;50.676;7.838;2024-02-04T04:02:23;98997.16;;;12.63;100.00
54936;BME280;40838;50.676;7.838;2024-02-04T04:04:50;98995.19;;;12.76;100.00
54936;BME280;40838;50.676;7.838;2024-02-04T04:07:18;98989.06;;;12.53;100.00
54936;BME280;40838;50.676;7.838;2024-02-04T04:09:45;98988.56;;;12.78;100.00
54936;BME280;40838;50.676;7.838;2024-02-04T04:12:12;98982.09;;;12.96;100.00
54936;BME280;40838;50.676;7.838;2024-02-04T04:14:39;98986.47;;;12.58;100.00
54936;BME280;40838;50.676;7.838;2024-02-04T04:17:06;98984.63;;;12.20;100.00
54936;BME280;40838;50.676;7.838;2024-02-04T04:19:33;98973.53;;;12.23;100.00
54936;BME280;40838;50.676;7.838;2024-02-04T04:22:01;98981.78;;;12.04;100.00
54936;BME280;40838;50.676;7.838;2024-02-04T04:24:30;98972.72;;;12.22;100.00
54936;BME280;40838;50.676;7.838;2024-02-04T04:26:57;98984.09;;;12.57;100.00
54936;BME280;40838;50.676;7.838;2024-02-04T04:29:23;98986.13;;;11.94;100.00
54936;BME280;40838;50.676;7.838;2024-02-04T04:31:52;98986.31;;;11.87;100.00
54936;BME280;40838;50.676;7.838;2024-02-04T04:34:18;98987.13;;;11.71;100.00
54936;BME280;40838;50.676;7.838;2024-02-04T04:36:45;98988.59;;;12.00;100.00
54936;BME280;40838;50.676;7.838;2024-02-04T04:39:12;98984.59;;;12.37;100.00
54936;BME280;40838;50.676;7.838;2024-02-04T04:41:44;98998.56;;;12.10;100.00
54936;BME280;40838;50.676;7.838;2024-02-04T04:44:11;98993.75;;;12.07;100.00
54936;BME280;40838;50.676;7.838;2024-02-04T04:46:39;98993.16;;;12.61;100.00
54936;BME280;40838;50.676;7.838;2024-02-04T04:49:06;98991.56;;;12.60;100.00
54936;BME280;40838;50.676;7.838;2024-02-04T04:51:33;98988.69;;;11.89;100.00
54936;BME280;40838;50.676;7.838;2024-02-04T04:54:00;98986.94;;;11.94;100.00
54936;BME280;40838;50.676;7.838;2024-02-04T04:56:26;98982.16;;;12.52;100.00
54936;BME280;40838;50.676;7.838;2024-02-04T04:58:55;98988.63;;;12.39;100.00
54936;BME280;40838;50.676;7.838;2024-02-04T05:01:22;98973.84;;;12.26;100.00
54936;BME280;40838;50.676;7.838;2024-02-04T05:03:48;98982.66;;;12.10;100.00
54936;BME280;40838;50.676;7.838;2024-02-04T05:06:16;99005.09;;;12.41;100.00
54936;BME280;40838;50.676;7.838;2024-02-04T05:08:43;99011.78;;;12.88;100.00
54936;BME280;40838;50.676;7.838;2024-02-04T05:11:10;99004.91;;;12.48;100.00
54936;BME280;40838;50.676;7.838;2024-02-04T05:13:38;99008.13;;;12.50;100.00
54936;BME280;40838;50.676;7.838;2024-02-04T05:16:07;99013.94;;;12.30;100.00
54936;BME280;40838;50.676;7.838;2024-02-04T05:18:34;99002.34;;;12.53;100.00
54936;BME280;40838;50.676;7.838;2024-02-04T05:21:01;99003.50;;;11.84;100.00
54936;BME280;40838;50.676;7.838;2024-02-04T05:23:28;98997.06;;;12.36;100.00
54936;BME280;40838;50.676;7.838;2024-02-04T05:25:55;98999.56;;;11.87;100.00
54936;BME280;40838;50.676;7.838;2024-02-04T05:28:22;99004.97;;;11.58;100.00
54936;BME280;40838;50.676;7.838;2024-02-04T05:30:49;99012.13;;;12.31;100.00
54936;BME280;40838;50.676;7.838;2024-02-04T05:33:17;99010.63;;;12.57;100.00
54936;BME280;40838;50.676;7.838;2024-02-04T05:35:44;99014.25;;;12.12;100.00
54936;BME280;40838;50.676;7.838;2024-02-04T05:38:11;99001.78;;;12.12;100.00
54936;BME280;40838;50.676;7.838;2024-02-04T05:40:38;99009.59;;;12.41;100.00
54936;BME280;40838;50.676;7.838;2024-02-04T05:43:05;98997.44;;;12.06;100.00
54936;BME280;40838;50.676;7.838;2024-02-04T05:45:34;99000.53;;;12.37;100.00
54936;BME280;40838;50.676;7.838;2024-02-04T05:48:01;98997.91;;;12.42;100.00
54936;BME280;40838;50.676;7.838;2024-02-04T05:50:30;98994.75;;;12.84;100.00
54936;BME280;40838;50.676;7.838;2024-02-04T05:52:56;99005.22;;;12.13;100.00
54936;BME280;40838;50.676;7.838;2024-02-04T05:55:23;98994.22;;;12.43;100.00
54936;BME280;40838;50.676;7.838;2024-02-04T05:57:50;98997.03;;;12.75;100.00
54936;BME280;40838;50.676;7.838;2024-02-04T06:00:18;98984.41;;;12.65;100.00
54936;BME280;40838;50.676;7.838;2024-02-04T06:02:45;98987.06;;;12.43;100.00
54936;BME280;40838;50.676;7.838;2024-02-04T06:05:12;98996.94;;;12.26;100.00
54936;BME280;40838;50.676;7.838;2024-02-04T06:07:42;98998.47;;;12.44;100.00
54936;BME280;40838;50.676;7.838;2024-02-04T06:10:09;98986.63;;;12.73;100.00
54936;BME280;40838;50.676;7.838;2024-02-04T06:12:36;98985.53;;;12.69;100.00
54936;BME280;40838;50.676;7.838;2024-02-04T06:15:12;98980.00;;;12.98;100.00
54936;BME280;40838;50.676;7.838;2024-02-04T06:17:39;98984.34;;;13.36;100.00
54936;BME280;40838;50.676;7.838;2024-02-04T06:20:06;98978.94;;;12.72;100.00
54936;BME280;40838;50.676;7.838;2024-02-04T06:22:34;98977.41;;;12.54;100.00
54936;BME280;40838;50.676;7.838;2024-02-04T06:25:03;98983.72;;;12.31;100.00
54936;BME280;40838;50.676;7.838;2024-02-04T06:27:30;98970.06;;;12.22;100.00
54936;BME280;40838;50.676;7.838;2024-02-04T06:29:57;98972.19;;;12.42;100.00
54936;BME280;40838;50.676;7.838;2024-02-04T06:32:24;98960.22;;;12.40;100.00
54936;BME280;40838;50.676;7.838;2024-02-04T06:34:51;98963.78;;;12.50;100.00
54936;BME280;40838;50.676;7.838;2024-02-04T06:37:21;98960.28;;;12.67;100.00
54936;BME280;40838;50.676;7.838;2024-02-04T06:39:48;98960.63;;;12.32;100.00
54936;BME280;40838;50.676;7.838;2024-02-04T06:42:16;98958.69;;;12.66;100.00
54936;BME280;40838;50.676;7.838;2024-02-04T06:44:43;98975.22;;;12.73;100.00
54936;BME280;40838;50.676;7.838;2024-02-04T06:47:11;98978.06;;;12.66;100.00
54936;BME280;40838;50.676;7.838;2024-02-04T06:49:39;98977.78;;;12.63;100.00
54936;BME280;40838;50.676;7.838;2024-02-04T06:52:06;98976.72;;;11.86;100.00
54936;BME280;40838;50.676;7.838;2024-02-04T06:54:33;98968.91;;;12.35;100.00
54936;BME280;40838;50.676;7.838;2024-02-04T06:57:00;98971.63;;;12.84;100.00
54936;BME280;40838;50.676;7.838;2024-02-04T06:59:28;98974.88;;;12.47;100.00
54936;BME280;40838;50.676;7.838;2024-02-04T07:01:55;98973.84;;;12.26;100.00
54936;BME280;40838;50.676;7.838;2024-02-04T07:04:22;98968.75;;;12.64;100.00
54936;BME280;40838;50.676;7.838;2024-02-04T07:06:49;98960.66;;;13.03;100.00
54936;BME280;40838;50.676;7.838;2024-02-04T07:09:17;98967.81;;;12.53;100.00
54936;BME280;40838;50.676;7.838;2024-02-04T07:11:44;98964.28;;;12.69;100.00
54936;BME280;40838;50.676;7.838;2024-02-04T07:14:11;98961.84;;;12.63;100.00
54936;BME280;40838;50.676;7.838;2024-02-04T07:16:39;98965.16;;;13.02;100.00
54936;BME280;40838;50.676;7.838;2024-02-04T07:19:06;98957.75;;;12.77;100.00
54936;BME280;40838;50.676;7.838;2024-02-04T07:21:33;98955.59;;;12.52;100.00
54936;BME280;40838;50.676;7.838;2024-02-04T07:24:00;98964.22;;;12.64;100.00
54936;BME280;40838;50.676;7.838;2024-02-04T07:26:28;98970.16;;;12.27;100.00
54936;BME280;40838;50.676;7.838;2024-02-04T07:28:55;98968.38;;;12.55;100.00
54936;BME280;40838;50.676;7.838;2024-02-04T07:31:22;98968.72;;;12.20;100.00
54936;BME280;40838;50.676;7.838;2024-02-04T07:33:51;98956.63;;;12.51;100.00
54936;BME280;40838;50.676;7.838;2024-02-04T07:36:18;98967.78;;;11.92;100.00
54936;BME280;40838;50.676;7.838;2024-02-04T07:38:45;98969.03;;;12.23;100.00
54936;BME280;40838;50.676;7.838;2024-02-04T07:41:13;98954.16;;;12.22;100.00
54936;BME280;40838;50.676;7.838;2024-02-04T07:43:42;98945.56;;;12.15;100.00
54936;BME280;40838;50.676;7.838;2024-02-04T07:46:10;98937.41;;;12.44;100.00
54936;BME280;40838;50.676;7.838;2024-02-04T07:48:37;98937.97;;;12.02;100.00
54936;BME280;40838;50.676;7.838;2024-02-04T07:51:06;98933.78;;;12.28;100.00
54936;BME280;40838;50.676;7.838;2024-02-04T07:53:34;98937.03;;;11.74;100.00
54936;BME280;40838;50.676;7.838;2024-02-04T07:56:01;98931.00;;;11.96;100.00
54936;BME280;40838;50.676;7.838;2024-02-04T07:58:29;98937.31;;;12.34;100.00
54936;BME280;40838;50.676;7.838;2024-02-04T08:00:56;98942.84;;;12.10;100.00
54936;BME280;40838;50.676;7.838;2024-02-04T08:03:23;98949.63;;;12.23;100.00
54936;BME280;40838;50.676;7.838;2024-02-04T08:05:50;98941.41;;;12.63;100.00
54936;BME280;40838;50.676;7.838;2024-02-04T08:08:18;98952.03;;;12.02;100.00
54936;BME280;40838;50.676;7.838;2024-02-04T08:10:45;98934.34;;;11.69;100.00
54936;BME280;40838;50.676;7.838;2024-02-04T08:13:12;98946.00;;;12.29;100.00
54936;BME280;40838;50.676;7.838;2024-02-04T08:15:40;98952.34;;;12.50;100.00
54936;BME280;40838;50.676;7.838;2024-02-04T08:18:07;98952.09;;;12.73;100.00
54936;BME280;40838;50.676;7.838;2024-02-04T08:20:34;98953.22;;;12.78;100.00
54936;BME280;40838;50.676;7.838;2024-02-04T08:23:01;98948.66;;;12.07;100.00
54936;BME280;40838;50.676;7.838;2024-02-04T08:25:30;98959.06;;;12.52;100.00
54936;BME280;40838;50.676;7.838;2024-02-04T08:27:59;98941.31;;;13.07;100.00
54936;BME280;40838;50.676;7.838;2024-02-04T08:30:26;98946.38;;;12.16;100.00
54936;BME280;40838;50.676;7.838;2024-02-04T08:32:53;98940.53;;;11.58;100.00
54936;BME280;40838;50.676;7.838;2024-02-04T08:35:20;98947.03;;;12.50;100.00
54936;BME280;40838;50.676;7.838;2024-02-04T08:37:47;98945.94;;;12.46;100.00
54936;BME280;40838;50.676;7.838;2024-02-04T08:40:14;98943.84;;;12.26;100.00
54936;BME280;40838;50.676;7.838;2024-02-04T08:42:42;98943.06;;;11.87;100.00
54936;BME280;40838;50.676;7.838;2024-02-04T08:45:10;98950.81;;;12.32;100.00
54936;BME280;40838;50.676;7.838;2024-02-04T08:47:37;98953.41;;;12.49;100.00
54936;BME280;40838;50.676;7.838;2024-02-04T08:50:05;98954.13;;;12.00;100.00
54936;BME280;40838;50.676;7.838;2024-02-04T08:52:32;98960.09;;;11.57;100.00
54936;BME280;40838;50.676;7.838;2024-02-04T08:54:59;98955.69;;;12.62;100.00
54936;BME280;40838;50.676;7.838;2024-02-04T08:57:29;98966.78;;;12.54;100.00
54936;BME280;40838;50.676;7.838;2024-02-04T08:59:58;98952.03;;;12.02;100.00
54936;BME280;40838;50.676;7.838;2024-02-04T09:02:25;98958.34;;;12.40;100.00
54936;BME280;40838;50.676;7.838;2024-02-04T09:04:52;98951.72;;;12.21;100.00
54936;BME280;40838;50.676;7.838;2024-02-04T09:07:20;98951.13;;;12.36;100.00
54936;BME280;40838;50.676;7.838;2024-02-04T09:09:47;98940.50;;;12.36;100.00
54936;BME280;40838;50.676;7.838;2024-02-04T09:12:14;98950.94;;;12.20;100.00
54936;BME280;40838;50.676;7.838;2024-02-04T09:14:41;98949.59;;;12.40;100.00
54936;BME280;40838;50.676;7.838;2024-02-04T09:17:09;98950.69;;;12.22;100.00
54936;BME280;40838;50.676;7.838;2024-02-04T09:19:39;98950.44;;;12.89;100.00
54936;BME280;40838;50.676;7.838;2024-02-04T09:22:06;98949.28;;;13.07;100.00
54936;BME280;40838;50.676;7.838;2024-02-04T09:24:33;98942.19;;;12.64;100.00
54936;BME280;40838;50.676;7.838;2024-02-04T09:27:00;98940.94;;;12.49;100.00
54936;BME280;40838;50.676;7.838;2024-02-04T09:29:27;98939.78;;;12.62;100.00
54936;BME280;40838;50.676;7.838;2024-02-04T09:31:54;98943.16;;;12.36;100.00
54936;BME280;40838;50.676;7.838;2024-02-04T09:34:23;98942.31;;;12.52;100.00
54936;BME280;40838;50.676;7.838;2024-02-04T09:36:53;98941.00;;;12.77;100.00
54936;BME280;40838;50.676;7.838;2024-02-04T09:39:19;98927.84;;;12.65;100.00
54936;BME280;40838;50.676;7.838;2024-02-04T09:41:46;98941.44;;;12.68;100.00
54936;BME280;40838;50.676;7.838;2024-02-04T09:44:14;98929.31;;;15.82;100.00
54936;BME280;40838;50.676;7.838;2024-02-04T09:46:41;98942.84;;;13.68;100.00
54936;BME280;40838;50.676;7.838;2024-02-04T09:49:09;98956.47;;;13.71;100.00
54936;BME280;40838;50.676;7.838;2024-02-04T09:51:37;98965.47;;;13.38;100.00
54936;BME280;40838;50.676;7.838;2024-02-04T09:54:09;98955.56;;;13.60;100.00
54936;BME280;40838;50.676;7.838;2024-02-04T09:56:38;98961.44;;;13.62;100.00
54936;BME280;40838;50.676;7.838;2024-02-04T09:59:05;98970.41;;;14.36;100.00
54936;BME280;40838;50.676;7.838;2024-02-04T10:01:32;98971.03;;;14.64;100.00
54936;BME280;40838;50.676;7.838;2024-02-04T10:03:59;98973.50;;;14.18;100.00
54936;BME280;40838;50.676;7.838;2024-02-04T10:06:26;98971.91;;;13.42;100.00
54936;BME280;40838;50.676;7.838;2024-02-04T10:08:55;98971.00;;;13.63;100.00
54936;BME280;40838;50.676;7.838;2024-02-04T10:11:22;98974.06;;;13.45;100.00
54936;BME280;40838;50.676;7.838;2024-02-04T10:13:49;98970.81;;;13.70;100.00
54936;BME280;40838;50.676;7.838;2024-02-04T10:16:16;98966.25;;;14.08;100.00
54936;BME280;40838;50.676;7.838;2024-02-04T10:18:44;98967.53;;;13.95;100.00
54936;BME280;40838;50.676;7.838;2024-02-04T10:21:15;98973.41;;;13.65;100.00
54936;BME280;40838;50.676;7.838;2024-02-04T10:23:44;98959.41;;;14.22;100.00
54936;BME280;40838;50.676;7.838;2024-02-04T10:26:12;98950.09;;;14.25;100.00
54936;BME280;40838;50.676;7.838;2024-02-04T10:28:39;98957.75;;;14.74;100.00
54936;BME280;40838;50.676;7.838;2024-02-04T10:31:08;98973.59;;;13.85;100.00
54936;BME280;40838;50.676;7.838;2024-02-04T10:33:36;98961.72;;;14.08;100.00
54936;BME280;40838;50.676;7.838;2024-02-04T10:36:04;98964.78;;;14.32;100.00
54936;BME280;40838;50.676;7.838;2024-02-04T10:38:32;98956.19;;;14.20;100.00
54936;BME280;40838;50.676;7.838;2024-02-04T10:41:00;98956.47;;;13.71;100.00
54936;BME280;40838;50.676;7.838;2024-02-04T10:43:31;98949.41;;;14.45;100.00
54936;BME280;40838;50.676;7.838;2024-02-04T10:46:01;98940.78;;;15.00;100.00
54936;BME280;40838;50.676;7.838;2024-02-04T10:48:34;98944.25;;;14.28;100.00
54936;BME280;40838;50.676;7.838;2024-02-04T10:51:12;98951.06;;;14.66;100.00
54936;BME280;40838;50.676;7.838;2024-02-04T10:53:41;98934.88;;;14.93;100.00
54936;BME280;40838;50.676;7.838;2024-02-04T10:56:13;98949.28;;;13.72;100.00
54936;BME280;40838;50.676;7.838;2024-02-04T10:58:43;98937.91;;;14.34;100.00
54936;BME280;40838;50.676;7.838;2024-02-04T11:01:13;98936.72;;;14.09;100.00
54936;BME280;40838;50.676;7.838;2024-02-04T11:03:41;98929.72;;;13.93;100.00
54936;BME280;40838;50.676;7.838;2024-02-04T11:06:10;98931.00;;;14.43;100.00
54936;BME280;40838;50.676;7.838;2024-02-04T11:08:38;98927.16;;;14.76;100.00
54936;BME280;40838;50.676;7.838;2024-02-04T11:11:05;98921.50;;;14.00;100.00
54936;BME280;40838;50.676;7.838;2024-02-04T11:13:32;98924.34;;;14.46;100.00
54936;BME280;40838;50.676;7.838;2024-02-04T11:16:06;98917.59;;;15.27;100.00
54936;BME280;40838;50.676;7.838;2024-02-04T11:18:50;98921.59;;;13.73;100.00
54936;BME280;40838;50.676;7.838;2024-02-04T11:21:38;98911.44;;;15.00;100.00
54936;BME280;40838;50.676;7.838;2024-02-04T11:24:18;98918.47;;;14.39;100.00
54936;BME280;40838;50.676;7.838;2024-02-04T11:26:48;98911.16;;;15.02;100.00
54936;BME280;40838;50.676;7.838;2024-02-04T11:29:16;98903.69;;;14.78;100.00
54936;BME280;40838;50.676;7.838;2024-02-04T11:31:45;98897.94;;;14.34;100.00
54936;BME280;40838;50.676;7.838;2024-02-04T11:34:12;98892.50;;;15.28;100.00
54936;BME280;40838;50.676;7.838;2024-02-04T11:36:39;98889.00;;;15.68;100.00
54936;BME280;40838;50.676;7.838;2024-02-04T11:39:18;98886.34;;;14.71;100.00
54936;BME280;40838;50.676;7.838;2024-02-04T11:41:48;98887.72;;;14.89;100.00
54936;BME280;40838;50.676;7.838;2024-02-04T11:44:20;98889.75;;;14.61;100.00
54936;BME280;40838;50.676;7.838;2024-02-04T11:46:51;98883.16;;;14.84;100.00
54936;BME280;40838;50.676;7.838;2024-02-04T11:49:19;98881.56;;;14.78;100.00
54936;BME280;40838;50.676;7.838;2024-02-04T11:51:47;98885.84;;;14.01;100.00
54936;BME280;40838;50.676;7.838;2024-02-04T11:54:17;98886.72;;;14.22;100.00
54936;BME280;40838;50.676;7.838;2024-02-04T11:56:45;98889.38;;;14.17;100.00
54936;BME280;40838;50.676;7.838;2024-02-04T11:59:19;98877.81;;;13.85;100.00
54936;BME280;40838;50.676;7.838;2024-02-04T12:01:49;98873.81;;;14.71;100.00
54936;BME280;40838;50.676;7.838;2024-02-04T12:04:16;98871.13;;;14.71;100.00
54936;BME280;40838;50.676;7.838;2024-02-04T12:06:43;98865.97;;;14.29;100.00
54936;BME280;40838;50.676;7.838;2024-02-04T12:09:10;98870.94;;;14.05;100.00
54936;BME280;40838;50.676;7.838;2024-02-04T12:11:38;98868.94;;;14.38;100.00
54936;BME280;40838;50.676;7.838;2024-02-04T12:14:07;98863.75;;;14.00;100.00
54936;BME280;40838;50.676;7.838;2024-02-04T12:16:34;98866.50;;;14.26;100.00
54936;BME280;40838;50.676;7.838;2024-02-04T12:19:03;98866.44;;;14.10;100.00
54936;BME280;40838;50.676;7.838;2024-02-04T12:21:30;98866.00;;;14.34;100.00
54936;BME280;40838;50.676;7.838;2024-02-04T12:23:58;98859.84;;;14.28;100.00
54936;BME280;40838;50.676;7.838;2024-02-04T12:26:25;98872.13;;;13.72;100.00
54936;BME280;40838;50.676;7.838;2024-02-04T12:28:52;98862.25;;;14.25;100.00
54936;BME280;40838;50.676;7.838;2024-02-04T12:31:24;98871.19;;;10.82;100.00
54936;BME280;40838;50.676;7.838;2024-02-04T12:33:56;98876.63;;;10.18;100.00
54936;BME280;40838;50.676;7.838;2024-02-04T12:36:26;98884.09;;;10.21;100.00
54936;BME280;40838;50.676;7.838;2024-02-04T12:38:53;98881.22;;;10.11;100.00
54936;BME280;40838;50.676;7.838;2024-02-04T12:41:20;98879.66;;;9.98;100.00
54936;BME280;40838;50.676;7.838;2024-02-04T12:43:50;98889.31;;;9.69;100.00
54936;BME280;40838;50.676;7.838;2024-02-04T12:46:18;98870.47;;;9.89;100.00
54936;BME280;40838;50.676;7.838;2024-02-04T12:48:45;98866.44;;;9.86;100.00
54936;BME280;40838;50.676;7.838;2024-02-04T12:51:12;98858.78;;;10.13;100.00
54936;BME280;40838;50.676;7.838;2024-02-04T12:54:01;98857.44;;;9.99;100.00